createdAt,value
2018-11-23T00:00:47.252Z,0.00
2018-11-23T00:01:47.160Z,0.00
2018-11-23T00:02:47.092Z,0.00
2018-11-23T00:03:46.999Z,0.00
2018-11-23T00:04:46.926Z,0.00
2018-11-23T00:05:46.832Z,0.00
2018-11-23T00:06:46.759Z,0.00
2018-11-23T00:07:46.663Z,0.00
2018-11-23T00:08:46.594Z,0.00
2018-11-23T00:09:46.497Z,0.00
2018-11-23T00:10:46.422Z,0.00
2018-11-23T00:11:46.329Z,0.00
2018-11-23T00:12:46.254Z,0.00
2018-11-23T00:13:46.164Z,0.00
2018-11-23T00:14:46.085Z,0.00
2018-11-23T00:15:45.997Z,0.00
2018-11-23T00:16:45.922Z,0.00
2018-11-23T00:17:45.833Z,0.00
2018-11-23T00:18:45.756Z,0.00
2018-11-23T00:19:45.665Z,0.00
2018-11-23T00:20:45.593Z,0.00
2018-11-23T00:21:45.502Z,0.00
2018-11-23T00:22:45.425Z,0.00
2018-11-23T00:23:45.345Z,0.00
2018-11-23T00:24:45.259Z,0.00
2018-11-23T00:25:45.168Z,0.00
2018-11-23T00:26:45.093Z,0.00
2018-11-23T00:27:45.005Z,0.00
2018-11-23T00:28:44.927Z,0.00
2018-11-23T00:29:44.837Z,0.00
2018-11-23T00:30:44.762Z,0.00
2018-11-23T00:31:44.666Z,0.00
2018-11-23T00:32:44.592Z,0.00
2018-11-23T00:33:44.500Z,0.00
2018-11-23T00:34:44.439Z,0.00
2018-11-23T00:35:44.334Z,0.00
2018-11-23T00:36:44.257Z,0.00
2018-11-23T00:37:44.170Z,0.00
2018-11-23T00:38:44.093Z,0.00
2018-11-23T00:39:44.026Z,0.00
2018-11-23T00:40:43.926Z,0.00
2018-11-23T00:41:43.837Z,0.00
2018-11-23T00:42:43.760Z,0.00
2018-11-23T00:43:43.668Z,0.00
2018-11-23T00:44:43.589Z,0.00
2018-11-23T00:45:43.503Z,0.00
2018-11-23T00:46:43.450Z,0.00
2018-11-23T00:47:43.337Z,0.00
2018-11-23T00:48:43.269Z,0.00
2018-11-23T00:49:43.169Z,0.00
2018-11-23T00:50:43.092Z,0.00
2018-11-23T00:51:43.007Z,0.00
2018-11-23T00:52:42.936Z,0.00
2018-11-23T00:53:42.843Z,0.00
2018-11-23T00:54:42.767Z,0.00
2018-11-23T00:55:42.704Z,0.00
2018-11-23T00:56:42.598Z,0.00
2018-11-23T00:57:42.509Z,0.00
2018-11-23T00:58:42.432Z,0.00
2018-11-23T00:59:42.342Z,0.00
2018-11-23T01:00:42.265Z,0.00
2018-11-23T01:01:42.183Z,0.00
2018-11-23T01:02:42.102Z,0.00
2018-11-23T01:03:42.007Z,0.00
2018-11-23T01:04:41.933Z,0.00
2018-11-23T01:05:41.842Z,0.00
2018-11-23T01:06:41.768Z,0.00
2018-11-23T01:07:41.675Z,0.00
2018-11-23T01:08:41.601Z,0.00
2018-11-23T01:09:41.508Z,0.00
2018-11-23T01:10:41.435Z,0.00
2018-11-23T01:11:41.342Z,0.00
2018-11-23T01:12:41.268Z,0.00
2018-11-23T01:13:41.178Z,0.00
2018-11-23T01:14:41.102Z,0.00
2018-11-23T01:15:41.015Z,0.00
2018-11-23T01:16:40.934Z,0.00
2018-11-23T01:17:40.843Z,0.00
2018-11-23T01:18:40.774Z,0.00
2018-11-23T01:19:40.683Z,0.00
2018-11-23T01:20:40.601Z,0.00
2018-11-23T01:21:40.511Z,0.00
2018-11-23T01:22:40.438Z,0.00
2018-11-23T01:23:40.342Z,0.00
2018-11-23T01:24:40.267Z,0.00
2018-11-23T01:25:40.177Z,0.00
2018-11-23T01:26:41.103Z,0.00
2018-11-23T01:27:40.016Z,0.00
2018-11-23T01:28:39.937Z,0.00
2018-11-23T01:29:39.847Z,0.00
2018-11-23T01:30:39.769Z,0.00
2018-11-23T01:31:39.687Z,0.00
2018-11-23T01:32:39.603Z,0.00
2018-11-23T01:33:39.512Z,0.00
2018-11-23T01:34:40.437Z,0.00
2018-11-23T01:35:39.347Z,0.00
2018-11-23T01:36:39.272Z,0.00
2018-11-23T01:37:39.182Z,0.00
2018-11-23T01:38:39.109Z,0.00
2018-11-23T01:39:39.021Z,0.00
2018-11-23T01:40:38.939Z,0.00
2018-11-23T01:41:38.847Z,0.00
2018-11-23T01:42:38.776Z,0.00
2018-11-23T01:43:38.683Z,0.00
2018-11-23T01:44:38.614Z,0.00
2018-11-23T01:45:38.522Z,0.00
2018-11-23T01:46:38.449Z,0.00
2018-11-23T01:47:38.360Z,0.00
2018-11-23T01:48:38.275Z,0.00
2018-11-23T01:49:38.180Z,0.00
2018-11-23T01:50:39.107Z,0.00
2018-11-23T01:51:38.016Z,0.00
2018-11-23T01:52:37.936Z,0.00
2018-11-23T01:53:37.863Z,0.00
2018-11-23T01:54:37.772Z,0.00
2018-11-23T01:55:37.690Z,0.00
2018-11-23T01:56:37.597Z,0.00
2018-11-23T01:57:37.526Z,0.00
2018-11-23T01:58:37.441Z,0.00
2018-11-23T01:59:38.364Z,0.00
2018-11-23T02:00:37.273Z,0.00
2018-11-23T02:01:37.195Z,0.00
2018-11-23T02:02:37.106Z,0.00
2018-11-23T02:03:37.035Z,0.00
2018-11-23T02:04:36.938Z,0.00
2018-11-23T02:05:36.867Z,0.00
2018-11-23T02:06:36.771Z,0.00
2018-11-23T02:07:36.697Z,0.00
2018-11-23T02:08:36.603Z,0.00
2018-11-23T02:09:36.529Z,0.00
2018-11-23T02:10:36.440Z,0.00
2018-11-23T02:11:36.362Z,0.00
2018-11-23T02:12:36.270Z,0.00
2018-11-23T02:13:36.206Z,0.00
2018-11-23T02:14:36.110Z,0.00
2018-11-23T02:15:36.030Z,0.00
2018-11-23T02:16:35.941Z,0.00
2018-11-23T02:17:35.864Z,0.00
2018-11-23T02:18:35.771Z,0.00
2018-11-23T02:19:35.700Z,0.00
2018-11-23T02:20:35.607Z,0.00
2018-11-23T02:21:35.534Z,0.00
2018-11-23T02:22:35.442Z,0.00
2018-11-23T02:23:35.369Z,0.00
2018-11-23T02:24:35.274Z,0.00
2018-11-23T02:25:35.200Z,0.00
2018-11-23T02:26:35.116Z,0.00
2018-11-23T02:27:35.035Z,0.00
2018-11-23T02:28:34.942Z,0.00
2018-11-23T02:29:34.869Z,0.00
2018-11-23T02:30:34.780Z,0.00
2018-11-23T02:31:34.698Z,0.00
2018-11-23T02:32:34.612Z,0.00
2018-11-23T02:33:34.536Z,0.00
2018-11-23T02:34:34.446Z,0.00
2018-11-23T02:35:34.365Z,0.00
2018-11-23T02:36:34.286Z,0.00
2018-11-23T02:37:34.207Z,0.00
2018-11-23T02:38:34.139Z,0.00
2018-11-23T02:39:34.043Z,0.00
2018-11-23T02:40:33.947Z,0.00
2018-11-23T02:41:33.871Z,0.00
2018-11-23T02:42:33.783Z,0.00
2018-11-23T02:43:33.703Z,0.00
2018-11-23T02:44:33.623Z,0.00
2018-11-23T02:45:33.534Z,0.00
2018-11-23T02:46:33.451Z,0.00
2018-11-23T02:47:33.376Z,0.00
2018-11-23T02:48:33.280Z,0.00
2018-11-23T02:49:33.210Z,0.00
2018-11-23T02:50:33.117Z,0.00
2018-11-23T02:51:33.037Z,0.00
2018-11-23T02:52:32.947Z,0.00
2018-11-23T02:53:32.875Z,0.00
2018-11-23T02:54:32.784Z,0.00
2018-11-23T02:55:32.711Z,0.00
2018-11-23T02:56:32.616Z,0.00
2018-11-23T02:57:32.544Z,0.00
2018-11-23T02:58:32.454Z,0.00
2018-11-23T02:59:32.373Z,0.00
2018-11-23T03:00:32.282Z,0.00
2018-11-23T03:01:32.210Z,0.00
2018-11-23T03:02:32.119Z,0.00
2018-11-23T03:03:32.042Z,0.00
2018-11-23T03:04:31.954Z,0.00
2018-11-23T03:05:31.878Z,0.00
2018-11-23T03:06:31.799Z,0.00
2018-11-23T03:07:31.729Z,0.00
2018-11-23T03:08:31.618Z,0.00
2018-11-23T03:09:31.546Z,0.00
2018-11-23T03:10:31.455Z,0.00
2018-11-23T03:11:31.375Z,0.00
2018-11-23T03:12:31.284Z,0.00
2018-11-23T03:13:31.216Z,0.00
2018-11-23T03:14:31.120Z,0.00
2018-11-23T03:15:31.073Z,0.00
2018-11-23T03:16:30.956Z,0.00
2018-11-23T03:17:30.881Z,0.00
2018-11-23T03:18:30.789Z,0.00
2018-11-23T03:19:30.710Z,0.00
2018-11-23T03:20:30.624Z,0.00
2018-11-23T03:21:30.551Z,0.00
2018-11-23T03:22:30.455Z,0.00
2018-11-23T03:23:30.378Z,0.00
2018-11-23T03:24:30.328Z,0.00
2018-11-23T03:25:30.218Z,0.00
2018-11-23T03:26:30.123Z,0.00
2018-11-23T03:27:30.051Z,0.00
2018-11-23T03:28:29.957Z,0.00
2018-11-23T03:29:29.882Z,0.00
2018-11-23T03:30:29.790Z,0.00
2018-11-23T03:31:29.709Z,0.00
2018-11-23T03:32:29.623Z,0.00
2018-11-23T03:33:29.550Z,0.00
2018-11-23T03:34:29.459Z,0.00
2018-11-23T03:35:29.383Z,0.00
2018-11-23T03:36:29.287Z,0.00
2018-11-23T03:37:29.214Z,0.00
2018-11-23T03:38:29.138Z,0.00
2018-11-23T03:39:34.072Z,0.00
2018-11-23T03:40:28.957Z,0.00
2018-11-23T03:41:28.882Z,0.00
2018-11-23T03:42:28.804Z,0.00
2018-11-23T03:43:28.719Z,0.00
2018-11-23T03:44:28.627Z,0.00
2018-11-23T03:45:28.584Z,0.00
2018-11-23T03:46:28.461Z,0.00
2018-11-23T03:47:28.384Z,0.00
2018-11-23T03:48:28.296Z,0.00
2018-11-23T03:49:28.221Z,0.00
2018-11-23T03:50:28.127Z,0.00
2018-11-23T03:51:28.049Z,0.00
2018-11-23T03:52:27.964Z,0.00
2018-11-23T03:53:27.896Z,0.00
2018-11-23T03:54:27.794Z,0.00
2018-11-23T03:55:27.716Z,0.00
2018-11-23T03:56:27.632Z,0.00
2018-11-23T03:57:27.556Z,0.00
2018-11-23T03:58:27.465Z,0.00
2018-11-23T03:59:27.390Z,0.00
2018-11-23T04:00:27.296Z,0.00
2018-11-23T04:01:27.231Z,0.00
2018-11-23T04:02:27.141Z,0.00
2018-11-23T04:03:27.116Z,0.00
2018-11-23T04:04:26.964Z,0.00
2018-11-23T04:05:26.892Z,0.00
2018-11-23T04:06:26.804Z,0.00
2018-11-23T04:07:26.720Z,0.00
2018-11-23T04:08:26.628Z,0.00
2018-11-23T04:09:26.560Z,0.00
2018-11-23T04:10:26.470Z,0.00
2018-11-23T04:11:26.386Z,0.00
2018-11-23T04:12:26.295Z,0.00
2018-11-23T04:13:26.224Z,0.00
2018-11-23T04:14:26.136Z,0.00
2018-11-23T04:15:26.054Z,0.00
2018-11-23T04:16:25.960Z,0.00
2018-11-23T04:17:25.889Z,0.00
2018-11-23T04:18:25.799Z,0.00
2018-11-23T04:19:25.723Z,0.00
2018-11-23T04:20:25.631Z,0.00
2018-11-23T04:21:25.556Z,0.00
2018-11-23T04:22:25.466Z,0.00
2018-11-23T04:23:25.377Z,0.00
2018-11-23T04:24:25.303Z,0.00
2018-11-23T04:25:25.214Z,0.00
2018-11-23T04:26:25.150Z,0.00
2018-11-23T04:27:25.053Z,0.00
2018-11-23T04:28:24.971Z,0.00
2018-11-23T04:29:24.882Z,0.00
2018-11-23T04:30:24.805Z,0.00
2018-11-23T04:31:24.717Z,0.00
2018-11-23T04:32:24.658Z,0.00
2018-11-23T04:33:24.546Z,0.00
2018-11-23T04:34:24.472Z,0.00
2018-11-23T04:35:24.388Z,0.00
2018-11-23T04:36:24.304Z,0.00
2018-11-23T04:37:24.223Z,0.00
2018-11-23T04:38:24.143Z,0.00
2018-11-23T04:39:24.053Z,0.00
2018-11-23T04:40:23.984Z,0.00
2018-11-23T04:41:23.882Z,0.00
2018-11-23T04:42:23.806Z,0.00
2018-11-23T04:43:23.733Z,0.00
2018-11-23T04:44:23.637Z,0.00
2018-11-23T04:45:23.557Z,0.00
2018-11-23T04:46:23.481Z,0.00
2018-11-23T04:47:23.384Z,0.00
2018-11-23T04:48:23.310Z,0.00
2018-11-23T04:49:23.223Z,0.00
2018-11-23T04:50:23.144Z,0.00
2018-11-23T04:51:23.050Z,0.00
2018-11-23T04:52:22.977Z,0.00
2018-11-23T04:53:22.905Z,0.00
2018-11-23T04:54:22.807Z,0.00
2018-11-23T04:55:22.719Z,0.00
2018-11-23T04:56:22.652Z,0.00
2018-11-23T04:57:22.552Z,0.00
2018-11-23T04:58:22.476Z,0.00
2018-11-23T04:59:22.382Z,0.00
2018-11-23T05:00:22.309Z,0.00
2018-11-23T05:01:22.218Z,0.00
2018-11-23T05:02:22.142Z,0.00
2018-11-23T05:03:22.053Z,0.00
2018-11-23T05:04:21.972Z,0.00
2018-11-23T05:05:21.890Z,0.00
2018-11-23T05:06:21.808Z,0.00
2018-11-23T05:07:21.721Z,0.00
2018-11-23T05:08:21.639Z,0.00
2018-11-23T05:09:21.557Z,0.00
2018-11-23T05:10:21.475Z,0.00
2018-11-23T05:11:21.387Z,0.00
2018-11-23T05:12:21.310Z,0.00
2018-11-23T05:13:21.218Z,0.00
2018-11-23T05:14:21.148Z,0.00
2018-11-23T05:15:21.054Z,0.00
2018-11-23T05:16:20.980Z,0.00
2018-11-23T05:17:20.885Z,0.00
2018-11-23T05:18:20.810Z,0.00
2018-11-23T05:19:20.718Z,0.00
2018-11-23T05:20:20.646Z,0.00
2018-11-23T05:21:20.556Z,0.00
2018-11-23T05:22:20.482Z,0.00
2018-11-23T05:23:20.434Z,0.00
2018-11-23T05:24:20.308Z,0.00
2018-11-23T05:25:20.222Z,0.00
2018-11-23T05:26:20.142Z,0.00
2018-11-23T05:27:20.055Z,0.00
2018-11-23T05:28:19.977Z,0.00
2018-11-23T05:29:19.883Z,0.00
2018-11-23T05:30:19.810Z,0.00
2018-11-23T05:31:19.716Z,0.00
2018-11-23T05:32:19.639Z,0.00
2018-11-23T05:33:19.549Z,0.00
2018-11-23T05:34:19.562Z,0.00
2018-11-23T05:35:19.385Z,0.00
2018-11-23T05:36:19.308Z,0.00
2018-11-23T05:37:19.216Z,0.00
2018-11-23T05:38:19.179Z,0.00
2018-11-23T05:39:19.049Z,0.00
2018-11-23T05:40:18.990Z,0.00
2018-11-23T05:41:18.882Z,0.00
2018-11-23T05:42:18.896Z,0.00
2018-11-23T05:43:18.717Z,0.00
2018-11-23T05:44:18.707Z,0.00
2018-11-23T05:45:18.550Z,0.00
2018-11-23T05:46:18.471Z,0.00
2018-11-23T05:47:18.439Z,0.00
2018-11-23T05:48:19.009Z,0.00
2018-11-23T05:49:18.245Z,0.00
2018-11-23T05:50:18.139Z,0.00
2018-11-23T05:51:18.138Z,0.00
2018-11-23T05:52:17.967Z,0.00
2018-11-23T05:53:17.887Z,0.00
2018-11-23T05:54:17.796Z,0.00
2018-11-23T05:55:17.754Z,0.00
2018-11-23T05:56:17.639Z,0.00
2018-11-23T05:57:17.663Z,0.00
2018-11-23T05:58:17.463Z,0.00
2018-11-23T05:59:17.408Z,0.00
2018-11-23T06:00:17.296Z,0.00
2018-11-23T06:01:17.283Z,0.00
2018-11-23T06:02:17.129Z,0.00
2018-11-23T06:03:17.089Z,0.00
2018-11-23T06:04:16.959Z,0.00
2018-11-23T06:05:16.899Z,0.00
2018-11-23T06:06:16.796Z,0.00
2018-11-23T06:07:16.820Z,0.00
2018-11-23T06:08:16.628Z,0.00
2018-11-23T06:09:16.637Z,0.00
2018-11-23T06:10:16.461Z,0.00
2018-11-23T06:11:16.430Z,0.00
2018-11-23T06:12:16.295Z,0.00
2018-11-23T06:13:16.234Z,0.00
2018-11-23T06:14:16.123Z,0.00
2018-11-23T06:15:16.144Z,0.00
2018-11-23T06:16:15.966Z,0.00
2018-11-23T06:17:15.955Z,0.00
2018-11-23T06:18:15.794Z,0.00
2018-11-23T06:19:15.760Z,0.00
2018-11-23T06:20:15.630Z,0.00
2018-11-23T06:21:15.577Z,4.00
2018-11-23T06:22:15.458Z,0.00
2018-11-23T06:23:15.484Z,0.00
2018-11-23T06:24:15.291Z,0.00
2018-11-23T06:25:15.291Z,0.00
2018-11-23T06:26:15.124Z,4.00
2018-11-23T06:27:15.097Z,0.00
2018-11-23T06:28:14.955Z,0.00
2018-11-23T06:29:14.904Z,4.00
2018-11-23T06:30:14.785Z,0.00
2018-11-23T06:31:14.815Z,0.00
2018-11-23T06:32:14.624Z,4.00
2018-11-23T06:33:14.626Z,4.00
2018-11-23T06:34:14.454Z,4.00
2018-11-23T06:35:14.432Z,4.00
2018-11-23T06:36:14.289Z,4.00
2018-11-23T06:37:14.240Z,4.00
2018-11-23T06:38:14.119Z,4.00
2018-11-23T06:39:14.054Z,4.00
2018-11-23T06:40:13.949Z,4.00
2018-11-23T06:41:19.488Z,4.00
2018-11-23T06:42:13.786Z,8.00
2018-11-23T06:43:13.769Z,8.00
2018-11-23T06:44:13.619Z,4.00
2018-11-23T06:45:13.576Z,8.00
2018-11-23T06:46:13.453Z,8.00
2018-11-23T06:47:13.486Z,12.00
2018-11-23T06:48:13.300Z,8.00
2018-11-23T06:49:13.296Z,12.00
2018-11-23T06:50:13.118Z,12.00
2018-11-23T06:51:13.041Z,12.00
2018-11-23T06:52:12.952Z,12.00
2018-11-23T06:53:12.915Z,12.00
2018-11-23T06:54:14.515Z,12.00
2018-11-23T06:55:12.709Z,12.00
2018-11-23T06:56:12.622Z,12.00
2018-11-23T06:57:12.637Z,12.00
2018-11-23T06:58:12.453Z,12.00
2018-11-23T06:59:12.439Z,16.00
2018-11-23T07:00:12.283Z,20.00
2018-11-23T07:01:12.247Z,16.00
2018-11-23T07:02:12.121Z,16.00
2018-11-23T07:03:12.057Z,20.00
2018-11-23T07:04:11.960Z,20.00
2018-11-23T07:05:11.969Z,20.00
2018-11-23T07:06:11.791Z,20.00
2018-11-23T07:07:11.784Z,20.00
2018-11-23T07:08:11.616Z,20.00
2018-11-23T07:09:11.584Z,24.00
2018-11-23T07:10:11.487Z,24.00
2018-11-23T07:11:11.392Z,24.00
2018-11-23T07:12:11.286Z,24.00
2018-11-23T07:13:11.309Z,24.00
2018-11-23T07:14:11.122Z,28.00
2018-11-23T07:15:11.114Z,32.00
2018-11-23T07:16:10.957Z,28.00
2018-11-23T07:17:10.923Z,36.00
2018-11-23T07:18:10.791Z,36.00
2018-11-23T07:19:10.709Z,36.00
2018-11-23T07:20:10.620Z,40.00
2018-11-23T07:21:10.640Z,40.00
2018-11-23T07:22:10.452Z,40.00
2018-11-23T07:23:10.446Z,44.00
2018-11-23T07:24:10.286Z,40.00
2018-11-23T07:25:10.256Z,44.00
2018-11-23T07:26:10.117Z,44.00
2018-11-23T07:27:10.067Z,48.00
2018-11-23T07:28:15.433Z,48.00
2018-11-23T07:29:09.991Z,44.00
2018-11-23T07:30:09.791Z,44.00
2018-11-23T07:31:09.787Z,44.00
2018-11-23T07:32:09.618Z,44.00
2018-11-23T07:33:09.538Z,48.00
2018-11-23T07:34:09.496Z,48.00
2018-11-23T07:35:09.365Z,52.00
2018-11-23T07:36:09.304Z,52.00
2018-11-23T07:37:09.202Z,52.00
2018-11-23T07:38:09.223Z,56.00
2018-11-23T07:39:09.035Z,52.00
2018-11-23T07:40:09.023Z,52.00
2018-11-23T07:41:08.874Z,56.00
2018-11-23T07:42:08.828Z,56.00
2018-11-23T07:43:08.703Z,56.00
2018-11-23T07:44:08.639Z,60.00
2018-11-23T07:45:08.538Z,60.00
2018-11-23T07:46:08.552Z,60.00
2018-11-23T07:47:08.367Z,64.00
2018-11-23T07:48:08.362Z,68.00
2018-11-23T07:49:08.203Z,72.00
2018-11-23T07:50:08.122Z,72.00
2018-11-23T07:51:08.033Z,76.00
2018-11-23T07:52:08.036Z,80.00
2018-11-23T07:53:07.869Z,80.00
2018-11-23T07:54:07.946Z,76.00
2018-11-23T07:55:07.702Z,72.00
2018-11-23T07:56:07.758Z,76.00
2018-11-23T07:57:07.541Z,76.00
2018-11-23T07:58:07.564Z,80.00
2018-11-23T07:59:07.372Z,80.00
2018-11-23T08:00:07.368Z,80.00
2018-11-23T08:01:07.205Z,80.00
2018-11-23T08:02:07.283Z,80.00
2018-11-23T08:03:07.042Z,76.00
2018-11-23T08:04:07.089Z,80.00
2018-11-23T08:05:06.873Z,80.00
2018-11-23T08:06:06.926Z,80.00
2018-11-23T08:07:06.704Z,80.00
2018-11-23T08:08:06.711Z,84.00
2018-11-23T08:09:06.540Z,88.00
2018-11-23T08:10:06.623Z,92.00
2018-11-23T08:11:06.377Z,92.00
2018-11-23T08:12:06.291Z,92.00
2018-11-23T08:13:06.340Z,92.00
2018-11-23T08:14:06.133Z,92.00
2018-11-23T08:15:06.144Z,88.00
2018-11-23T08:16:05.957Z,88.00
2018-11-23T08:17:05.882Z,92.00
2018-11-23T08:18:05.789Z,92.00
2018-11-23T08:19:05.765Z,92.00
2018-11-23T08:20:05.626Z,96.00
2018-11-23T08:21:05.566Z,96.00
2018-11-23T08:22:05.457Z,96.00
2018-11-23T08:23:05.379Z,100.00
2018-11-23T08:24:05.388Z,100.00
2018-11-23T08:25:05.208Z,96.00
2018-11-23T08:26:05.197Z,96.00
2018-11-23T08:27:05.042Z,104.00
2018-11-23T08:28:05.001Z,100.00
2018-11-23T08:29:04.879Z,100.00
2018-11-23T08:30:04.919Z,96.00
2018-11-23T08:31:04.711Z,100.00
2018-11-23T08:32:04.728Z,104.00
2018-11-23T08:33:04.550Z,108.00
2018-11-23T08:34:04.536Z,108.00
2018-11-23T08:35:04.380Z,108.00
2018-11-23T08:36:04.343Z,108.00
2018-11-23T08:37:04.210Z,112.00
2018-11-23T08:38:04.154Z,116.00
2018-11-23T08:39:04.869Z,116.00
2018-11-23T08:40:04.067Z,116.00
2018-11-23T08:41:03.886Z,116.00
2018-11-23T08:42:03.877Z,112.00
2018-11-23T08:43:03.715Z,108.00
2018-11-23T08:44:03.685Z,112.00
2018-11-23T08:45:03.547Z,108.00
2018-11-23T08:46:03.492Z,112.00
2018-11-23T08:47:03.380Z,112.00
2018-11-23T08:48:03.416Z,112.00
2018-11-23T08:49:03.222Z,116.00
2018-11-23T08:50:03.178Z,112.00
2018-11-23T08:51:03.050Z,116.00
2018-11-23T08:52:03.023Z,116.00
2018-11-23T08:53:02.910Z,120.00
2018-11-23T08:54:02.831Z,116.00
2018-11-23T08:55:02.719Z,120.00
2018-11-23T08:56:02.740Z,120.00
2018-11-23T08:57:02.558Z,124.00
2018-11-23T08:58:02.552Z,128.00
2018-11-23T08:59:02.383Z,124.00
2018-11-23T09:00:02.359Z,128.00
2018-11-23T09:01:02.221Z,132.00
2018-11-23T09:02:02.179Z,132.00
2018-11-23T09:03:02.055Z,128.00
2018-11-23T09:04:02.076Z,128.00
2018-11-23T09:05:01.893Z,132.00
2018-11-23T09:06:01.889Z,132.00
2018-11-23T09:07:01.721Z,132.00
2018-11-23T09:08:01.646Z,128.00
2018-11-23T09:09:01.599Z,128.00
2018-11-23T09:10:01.476Z,132.00
2018-11-23T09:11:01.512Z,132.00
2018-11-23T09:12:01.307Z,128.00
2018-11-23T09:13:01.321Z,124.00
2018-11-23T09:14:01.144Z,124.00
2018-11-23T09:15:01.131Z,128.00
2018-11-23T09:16:00.978Z,132.00
2018-11-23T09:17:00.899Z,132.00
2018-11-23T09:18:00.843Z,132.00
2018-11-23T09:19:00.732Z,136.00
2018-11-23T09:20:00.754Z,140.00
2018-11-23T09:21:00.563Z,144.00
2018-11-23T09:22:00.564Z,140.00
2018-11-23T09:23:00.402Z,136.00
2018-11-23T09:24:00.399Z,136.00
2018-11-23T09:25:00.231Z,132.00
2018-11-23T09:26:00.181Z,132.00
2018-11-23T09:27:00.067Z,128.00
2018-11-23T09:27:59.985Z,132.00
2018-11-23T09:28:59.899Z,136.00
2018-11-23T09:29:59.902Z,140.00
2018-11-23T09:30:59.733Z,144.00
2018-11-23T09:31:59.652Z,144.00
2018-11-23T09:32:59.674Z,144.00
2018-11-23T09:33:59.488Z,144.00
2018-11-23T09:34:59.422Z,148.00
2018-11-23T09:35:59.318Z,152.00
2018-11-23T09:36:59.336Z,156.00
2018-11-23T09:37:59.154Z,156.00
2018-11-23T09:38:59.149Z,156.00
2018-11-23T09:39:58.987Z,156.00
2018-11-23T09:40:58.953Z,156.00
2018-11-23T09:41:58.825Z,152.00
2018-11-23T09:42:58.763Z,152.00
2018-11-23T09:43:58.658Z,156.00
2018-11-23T09:44:58.579Z,164.00
2018-11-23T09:45:58.496Z,160.00
2018-11-23T09:46:58.486Z,160.00
2018-11-23T09:47:58.330Z,152.00
2018-11-23T09:48:58.286Z,148.00
2018-11-23T09:49:58.162Z,148.00
2018-11-23T09:50:58.103Z,152.00
2018-11-23T09:51:58.001Z,152.00
2018-11-23T09:52:58.016Z,152.00
2018-11-23T09:53:57.831Z,148.00
2018-11-23T09:54:57.747Z,144.00
2018-11-23T09:55:57.663Z,140.00
2018-11-23T09:56:57.632Z,144.00
2018-11-23T09:57:57.500Z,148.00
2018-11-23T09:58:57.434Z,148.00
2018-11-23T09:59:57.334Z,148.00
2018-11-23T10:00:57.353Z,148.00
2018-11-23T10:01:57.392Z,152.00
2018-11-23T10:02:57.085Z,148.00
2018-11-23T10:03:57.068Z,152.00
2018-11-23T10:04:56.922Z,148.00
2018-11-23T10:05:56.876Z,148.00
2018-11-23T10:06:56.752Z,152.00
2018-11-23T10:07:56.678Z,156.00
2018-11-23T10:08:56.690Z,156.00
2018-11-23T10:09:56.506Z,152.00
2018-11-23T10:10:56.512Z,156.00
2018-11-23T10:11:56.339Z,164.00
2018-11-23T10:12:56.271Z,164.00
2018-11-23T10:13:56.217Z,160.00
2018-11-23T10:14:56.094Z,160.00
2018-11-23T10:15:56.126Z,164.00
2018-11-23T10:16:55.929Z,164.00
2018-11-23T10:17:55.951Z,164.00
2018-11-23T10:18:55.762Z,168.00
2018-11-23T10:19:58.154Z,164.00
2018-11-23T10:20:55.605Z,168.00
2018-11-23T10:21:55.552Z,168.00
2018-11-23T10:22:55.429Z,164.00
2018-11-23T10:23:55.355Z,164.00
2018-11-23T10:24:55.268Z,164.00
2018-11-23T10:25:55.183Z,164.00
2018-11-23T10:26:55.176Z,164.00
2018-11-23T10:27:55.021Z,164.00
2018-11-23T10:28:54.987Z,164.00
2018-11-23T10:29:55.396Z,172.00
2018-11-23T10:30:54.773Z,172.00
2018-11-23T10:31:54.691Z,164.00
2018-11-23T10:32:54.704Z,160.00
2018-11-23T10:33:54.526Z,164.00
2018-11-23T10:34:54.513Z,160.00
2018-11-23T10:35:54.365Z,156.00
2018-11-23T10:36:54.320Z,156.00
2018-11-23T10:37:54.192Z,148.00
2018-11-23T10:38:54.113Z,148.00
2018-11-23T10:39:55.066Z,148.00
2018-11-23T10:40:53.946Z,152.00
2018-11-23T10:41:53.867Z,148.00
2018-11-23T10:42:53.855Z,144.00
2018-11-23T10:43:53.702Z,140.00
2018-11-23T10:44:53.616Z,140.00
2018-11-23T10:45:53.569Z,140.00
2018-11-23T10:46:53.456Z,140.00
2018-11-23T10:47:53.477Z,140.00
2018-11-23T10:48:53.288Z,140.00
2018-11-23T10:49:53.284Z,144.00
2018-11-23T10:50:53.121Z,140.00
2018-11-23T10:51:53.043Z,140.00
2018-11-23T10:52:52.997Z,140.00
2018-11-23T10:53:52.892Z,148.00
2018-11-23T10:54:52.910Z,148.00
2018-11-23T10:55:52.711Z,152.00
2018-11-23T10:56:52.715Z,164.00
2018-11-23T10:57:52.546Z,176.00
2018-11-23T10:58:52.526Z,180.00
2018-11-23T10:59:52.377Z,188.00
2018-11-23T11:00:52.297Z,196.00
2018-11-23T11:01:52.216Z,208.00
2018-11-23T11:02:53.171Z,196.00
2018-11-23T11:03:52.050Z,200.00
2018-11-23T11:04:52.058Z,192.00
2018-11-23T11:05:51.888Z,180.00
2018-11-23T11:06:51.868Z,188.00
2018-11-23T11:07:51.725Z,180.00
2018-11-23T11:08:51.686Z,176.00
2018-11-23T11:09:51.557Z,184.00
2018-11-23T11:10:51.617Z,176.00
2018-11-23T11:11:51.391Z,176.00
2018-11-23T11:12:51.397Z,180.00
2018-11-23T11:13:51.227Z,176.00
2018-11-23T11:14:51.203Z,176.00
2018-11-23T11:15:51.069Z,172.00
2018-11-23T11:16:51.013Z,168.00
2018-11-23T11:17:50.901Z,164.00
2018-11-23T11:18:50.925Z,160.00
2018-11-23T11:19:50.732Z,160.00
2018-11-23T11:20:51.758Z,160.00
2018-11-23T11:21:50.572Z,160.00
2018-11-23T11:22:50.486Z,160.00
2018-11-23T11:23:50.403Z,164.00
2018-11-23T11:24:50.725Z,168.00
2018-11-23T11:25:50.240Z,172.00
2018-11-23T11:26:50.158Z,168.00
2018-11-23T11:27:50.083Z,168.00
2018-11-23T11:28:49.995Z,172.00
2018-11-23T11:29:49.912Z,168.00
2018-11-23T11:30:49.883Z,168.00
2018-11-23T11:31:49.745Z,164.00
2018-11-23T11:32:49.688Z,168.00
2018-11-23T11:33:49.637Z,172.00
2018-11-23T11:34:49.599Z,172.00
2018-11-23T11:35:49.419Z,168.00
2018-11-23T11:36:49.328Z,176.00
2018-11-23T11:37:49.255Z,184.00
2018-11-23T11:38:49.234Z,184.00
2018-11-23T11:39:49.088Z,188.00
2018-11-23T11:40:49.030Z,192.00
2018-11-23T11:41:48.922Z,192.00
2018-11-23T11:42:48.941Z,184.00
2018-11-23T11:43:48.759Z,180.00
2018-11-23T11:44:48.747Z,180.00
2018-11-23T11:45:48.594Z,184.00
2018-11-23T11:46:48.555Z,188.00
2018-11-23T11:47:48.428Z,188.00
2018-11-23T11:48:48.352Z,188.00
2018-11-23T11:49:48.373Z,188.00
2018-11-23T11:50:48.185Z,188.00
2018-11-23T11:51:48.103Z,176.00
2018-11-23T11:52:48.085Z,184.00
2018-11-23T11:53:47.934Z,180.00
2018-11-23T11:54:47.898Z,184.00
2018-11-23T11:55:47.767Z,188.00
2018-11-23T11:56:47.688Z,184.00
2018-11-23T11:57:47.711Z,184.00
2018-11-23T11:58:47.530Z,188.00
2018-11-23T11:59:47.546Z,192.00
2018-11-23T12:00:47.361Z,204.00
2018-11-23T12:01:47.329Z,212.00
2018-11-23T12:02:47.243Z,208.00
2018-11-23T12:03:47.141Z,204.00
2018-11-23T12:04:47.030Z,204.00
2018-11-23T12:05:46.951Z,204.00
2018-11-23T12:06:46.957Z,204.00
2018-11-23T12:07:46.781Z,204.00
2018-11-23T12:08:46.707Z,204.00
2018-11-23T12:09:46.668Z,200.00
2018-11-23T12:10:46.540Z,200.00
2018-11-23T12:11:46.453Z,196.00
2018-11-23T12:12:46.487Z,196.00
2018-11-23T12:13:46.290Z,196.00
2018-11-23T12:14:46.296Z,192.00
2018-11-23T12:15:46.125Z,192.00
2018-11-23T12:16:46.105Z,188.00
2018-11-23T12:17:45.963Z,188.00
2018-11-23T12:18:46.025Z,184.00
2018-11-23T12:19:45.793Z,184.00
2018-11-23T12:20:45.716Z,176.00
2018-11-23T12:21:45.730Z,176.00
2018-11-23T12:22:45.556Z,168.00
2018-11-23T12:23:45.535Z,160.00
2018-11-23T12:24:45.384Z,160.00
2018-11-23T12:25:45.447Z,156.00
2018-11-23T12:26:45.222Z,156.00
2018-11-23T12:27:45.257Z,160.00
2018-11-23T12:28:45.059Z,160.00
2018-11-23T12:29:45.066Z,152.00
2018-11-23T12:30:44.885Z,164.00
2018-11-23T12:31:44.874Z,176.00
2018-11-23T12:32:44.727Z,184.00
2018-11-23T12:33:44.784Z,192.00
2018-11-23T12:34:44.561Z,200.00
2018-11-23T12:35:44.593Z,184.00
2018-11-23T12:36:44.397Z,172.00
2018-11-23T12:37:44.320Z,184.00
2018-11-23T12:38:44.309Z,184.00
2018-11-23T12:39:44.150Z,144.00
2018-11-23T12:40:44.219Z,172.00
2018-11-23T12:41:43.984Z,172.00
2018-11-23T12:42:44.029Z,172.00
2018-11-23T12:43:43.835Z,156.00
2018-11-23T12:44:43.940Z,168.00
2018-11-23T12:45:43.657Z,168.00
2018-11-23T12:46:43.647Z,156.00
2018-11-23T12:47:43.501Z,148.00
2018-11-23T12:48:43.560Z,152.00
2018-11-23T12:49:43.329Z,152.00
2018-11-23T12:50:43.366Z,148.00
2018-11-23T12:51:43.165Z,152.00
2018-11-23T12:52:43.083Z,144.00
2018-11-23T12:53:43.083Z,144.00
2018-11-23T12:54:42.915Z,148.00
2018-11-23T12:55:42.997Z,144.00
2018-11-23T12:56:42.750Z,148.00